sensor_id;sensor_type;location;lat;lon;timestamp;temperature;humidity
21648;DHT22;10985;54.182;7.890;2023-08-06T00:02:03;16.50;99.90
21648;DHT22;10985;54.182;7.890;2023-08-06T00:04:28;16.40;99.90
21648;DHT22;10985;54.182;7.890;2023-08-06T00:06:54;16.50;99.90
21648;DHT22;10985;54.182;7.890;2023-08-06T00:09:19;16.40;99.90
21648;DHT22;10985;54.182;7.890;2023-08-06T00:11:45;16.40;99.90
21648;DHT22;10985;54.182;7.890;2023-08-06T00:14:12;16.40;99.90
21648;DHT22;10985;54.182;7.890;2023-08-06T00:16:42;16.40;99.90
21648;DHT22;10985;54.182;7.890;2023-08-06T00:19:08;16.40;99.90
21648;DHT22;10985;54.182;7.890;2023-08-06T00:21:33;16.40;99.90
21648;DHT22;10985;54.182;7.890;2023-08-06T00:23:59;16.40;99.90
21648;DHT22;10985;54.182;7.890;2023-08-06T00:26:24;16.40;99.90
21648;DHT22;10985;54.182;7.890;2023-08-06T00:28:50;16.40;99.90
21648;DHT22;10985;54.182;7.890;2023-08-06T00:31:15;16.40;99.90
21648;DHT22;10985;54.182;7.890;2023-08-06T00:33:41;16.40;99.90
21648;DHT22;10985;54.182;7.890;2023-08-06T00:36:06;16.40;99.90
21648;DHT22;10985;54.182;7.890;2023-08-06T00:38:32;16.50;99.90
21648;DHT22;10985;54.182;7.890;2023-08-06T00:40:57;16.40;99.90
21648;DHT22;10985;54.182;7.890;2023-08-06T00:43:23;16.50;99.90
21648;DHT22;10985;54.182;7.890;2023-08-06T00:45:48;16.40;99.90
21648;DHT22;10985;54.182;7.890;2023-08-06T00:48:14;16.40;99.90
21648;DHT22;10985;54.182;7.890;2023-08-06T00:50:40;16.40;99.90
21648;DHT22;10985;54.182;7.890;2023-08-06T00:53:06;16.40;99.90
21648;DHT22;10985;54.182;7.890;2023-08-06T00:55:32;16.40;99.90
21648;DHT22;10985;54.182;7.890;2023-08-06T00:57:58;16.40;99.90
21648;DHT22;10985;54.182;7.890;2023-08-06T01:00:24;16.40;99.90
21648;DHT22;10985;54.182;7.890;2023-08-06T01:02:51;16.40;99.90
21648;DHT22;10985;54.182;7.890;2023-08-06T01:05:17;16.40;99.90
21648;DHT22;10985;54.182;7.890;2023-08-06T01:08:13;16.40;99.90
21648;DHT22;10985;54.182;7.890;2023-08-06T01:15:49;16.40;99.90
21648;DHT22;10985;54.182;7.890;2023-08-06T01:18:17;16.40;99.90
21648;DHT22;10985;54.182;7.890;2023-08-06T01:20:43;16.40;99.90
21648;DHT22;10985;54.182;7.890;2023-08-06T01:23:08;16.40;99.90
21648;DHT22;10985;54.182;7.890;2023-08-06T01:25:39;16.40;99.90
21648;DHT22;10985;54.182;7.890;2023-08-06T01:30:55;16.40;99.90
21648;DHT22;10985;54.182;7.890;2023-08-06T01:33:21;16.40;99.90
21648;DHT22;10985;54.182;7.890;2023-08-06T01:35:49;16.40;99.90
21648;DHT22;10985;54.182;7.890;2023-08-06T01:38:15;16.40;99.90
21648;DHT22;10985;54.182;7.890;2023-08-06T01:40:40;16.40;99.90
21648;DHT22;10985;54.182;7.890;2023-08-06T01:43:06;16.40;99.90
21648;DHT22;10985;54.182;7.890;2023-08-06T01:45:31;16.30;99.90
21648;DHT22;10985;54.182;7.890;2023-08-06T01:47:57;16.30;99.90
21648;DHT22;10985;54.182;7.890;2023-08-06T01:50:22;16.30;99.90
21648;DHT22;10985;54.182;7.890;2023-08-06T01:52:48;16.40;99.90
21648;DHT22;10985;54.182;7.890;2023-08-06T01:55:13;16.30;99.90
21648;DHT22;10985;54.182;7.890;2023-08-06T01:57:39;16.30;99.90
21648;DHT22;10985;54.182;7.890;2023-08-06T02:00:05;16.30;99.90
21648;DHT22;10985;54.182;7.890;2023-08-06T02:02:31;16.30;99.90
21648;DHT22;10985;54.182;7.890;2023-08-06T02:04:56;16.30;99.90
21648;DHT22;10985;54.182;7.890;2023-08-06T02:07:23;16.30;99.90
21648;DHT22;10985;54.182;7.890;2023-08-06T02:09:49;16.30;99.90
21648;DHT22;10985;54.182;7.890;2023-08-06T02:12:14;16.30;99.90
21648;DHT22;10985;54.182;7.890;2023-08-06T02:14:39;16.20;99.90
21648;DHT22;10985;54.182;7.890;2023-08-06T02:17:05;16.20;99.90
21648;DHT22;10985;54.182;7.890;2023-08-06T02:19:31;16.20;99.90
21648;DHT22;10985;54.182;7.890;2023-08-06T02:21:56;16.20;99.90
21648;DHT22;10985;54.182;7.890;2023-08-06T02:24:22;16.20;99.90
21648;DHT22;10985;54.182;7.890;2023-08-06T02:26:47;16.10;99.90
21648;DHT22;10985;54.182;7.890;2023-08-06T02:29:16;16.10;99.90
21648;DHT22;10985;54.182;7.890;2023-08-06T02:31:41;16.20;99.90
21648;DHT22;10985;54.182;7.890;2023-08-06T02:34:07;16.10;99.90
21648;DHT22;10985;54.182;7.890;2023-08-06T02:36:32;16.10;99.90
21648;DHT22;10985;54.182;7.890;2023-08-06T02:38:58;16.00;99.90
21648;DHT22;10985;54.182;7.890;2023-08-06T02:41:23;16.00;99.90
21648;DHT22;10985;54.182;7.890;2023-08-06T02:43:49;16.00;99.90
21648;DHT22;10985;54.182;7.890;2023-08-06T02:46:14;16.10;99.90
21648;DHT22;10985;54.182;7.890;2023-08-06T02:48:40;16.10;99.90
21648;DHT22;10985;54.182;7.890;2023-08-06T02:51:05;16.00;99.90
21648;DHT22;10985;54.182;7.890;2023-08-06T02:53:31;16.00;99.90
21648;DHT22;10985;54.182;7.890;2023-08-06T02:55:57;16.00;99.90
21648;DHT22;10985;54.182;7.890;2023-08-06T02:58:22;16.00;99.90
21648;DHT22;10985;54.182;7.890;2023-08-06T03:01:01;16.00;99.90
21648;DHT22;10985;54.182;7.890;2023-08-06T03:03:28;16.00;99.90
21648;DHT22;10985;54.182;7.890;2023-08-06T03:05:54;16.00;99.90
21648;DHT22;10985;54.182;7.890;2023-08-06T03:08:20;15.90;99.90
21648;DHT22;10985;54.182;7.890;2023-08-06T03:10:48;16.00;99.90
21648;DHT22;10985;54.182;7.890;2023-08-06T03:13:14;15.90;99.90
21648;DHT22;10985;54.182;7.890;2023-08-06T03:15:39;15.90;99.90
21648;DHT22;10985;54.182;7.890;2023-08-06T03:18:05;15.90;99.90
21648;DHT22;10985;54.182;7.890;2023-08-06T03:20:32;15.90;99.90
21648;DHT22;10985;54.182;7.890;2023-08-06T03:22:58;15.90;99.90
21648;DHT22;10985;54.182;7.890;2023-08-06T03:25:23;15.90;99.90
21648;DHT22;10985;54.182;7.890;2023-08-06T03:27:49;15.90;99.90
21648;DHT22;10985;54.182;7.890;2023-08-06T03:30:14;15.90;99.90
21648;DHT22;10985;54.182;7.890;2023-08-06T03:32:40;15.90;99.90
21648;DHT22;10985;54.182;7.890;2023-08-06T03:35:06;15.90;99.90
21648;DHT22;10985;54.182;7.890;2023-08-06T03:37:31;15.90;99.90
21648;DHT22;10985;54.182;7.890;2023-08-06T03:39:57;15.90;99.90
21648;DHT22;10985;54.182;7.890;2023-08-06T03:42:22;15.90;99.90
21648;DHT22;10985;54.182;7.890;2023-08-06T03:44:48;15.80;99.90
21648;DHT22;10985;54.182;7.890;2023-08-06T03:47:13;15.90;99.90
21648;DHT22;10985;54.182;7.890;2023-08-06T03:49:39;15.90;99.90
21648;DHT22;10985;54.182;7.890;2023-08-06T03:52:05;15.90;99.90
21648;DHT22;10985;54.182;7.890;2023-08-06T03:54:31;15.90;99.90
21648;DHT22;10985;54.182;7.890;2023-08-06T03:56:56;15.90;99.90
21648;DHT22;10985;54.182;7.890;2023-08-06T03:59:22;15.90;99.90
21648;DHT22;10985;54.182;7.890;2023-08-06T04:01:47;15.90;99.90
21648;DHT22;10985;54.182;7.890;2023-08-06T04:04:13;15.90;99.90
21648;DHT22;10985;54.182;7.890;2023-08-06T04:06:38;15.90;99.90
21648;DHT22;10985;54.182;7.890;2023-08-06T04:09:04;15.90;99.90
21648;DHT22;10985;54.182;7.890;2023-08-06T04:11:29;15.90;99.90
21648;DHT22;10985;54.182;7.890;2023-08-06T04:13:55;15.90;99.90
21648;DHT22;10985;54.182;7.890;2023-08-06T04:16:21;15.90;99.90
21648;DHT22;10985;54.182;7.890;2023-08-06T04:18:47;15.90;99.90
21648;DHT22;10985;54.182;7.890;2023-08-06T04:21:12;15.90;99.90
21648;DHT22;10985;54.182;7.890;2023-08-06T04:23:38;16.00;99.90
21648;DHT22;10985;54.182;7.890;2023-08-06T04:26:03;16.00;99.90
21648;DHT22;10985;54.182;7.890;2023-08-06T04:28:29;16.00;99.90
21648;DHT22;10985;54.182;7.890;2023-08-06T04:30:55;16.00;99.90
21648;DHT22;10985;54.182;7.890;2023-08-06T04:33:21;16.10;99.90
21648;DHT22;10985;54.182;7.890;2023-08-06T04:35:46;16.10;99.90
21648;DHT22;10985;54.182;7.890;2023-08-06T04:38:12;16.00;99.90
21648;DHT22;10985;54.182;7.890;2023-08-06T04:40:37;16.10;99.90
21648;DHT22;10985;54.182;7.890;2023-08-06T04:43:03;16.10;99.90
21648;DHT22;10985;54.182;7.890;2023-08-06T04:45:28;16.10;99.90
21648;DHT22;10985;54.182;7.890;2023-08-06T04:47:54;16.10;99.90
21648;DHT22;10985;54.182;7.890;2023-08-06T04:50:20;16.10;99.90
21648;DHT22;10985;54.182;7.890;2023-08-06T04:52:45;16.20;99.90
21648;DHT22;10985;54.182;7.890;2023-08-06T04:55:11;16.20;99.90
21648;DHT22;10985;54.182;7.890;2023-08-06T04:57:36;16.20;99.90
21648;DHT22;10985;54.182;7.890;2023-08-06T05:00:02;16.20;99.90
21648;DHT22;10985;54.182;7.890;2023-08-06T05:02:30;16.20;99.90
21648;DHT22;10985;54.182;7.890;2023-08-06T05:04:58;16.20;99.90
21648;DHT22;10985;54.182;7.890;2023-08-06T05:07:23;16.30;99.90
21648;DHT22;10985;54.182;7.890;2023-08-06T05:09:49;16.30;99.90
21648;DHT22;10985;54.182;7.890;2023-08-06T05:12:14;16.30;99.90
21648;DHT22;10985;54.182;7.890;2023-08-06T05:14:40;16.30;99.90
21648;DHT22;10985;54.182;7.890;2023-08-06T05:17:05;16.30;99.90
21648;DHT22;10985;54.182;7.890;2023-08-06T05:19:31;16.40;99.90
21648;DHT22;10985;54.182;7.890;2023-08-06T05:21:56;16.40;99.90
21648;DHT22;10985;54.182;7.890;2023-08-06T05:24:22;16.40;99.90
21648;DHT22;10985;54.182;7.890;2023-08-06T05:26:47;16.40;99.90
21648;DHT22;10985;54.182;7.890;2023-08-06T05:29:16;16.50;99.90
21648;DHT22;10985;54.182;7.890;2023-08-06T05:31:41;16.50;99.90
21648;DHT22;10985;54.182;7.890;2023-08-06T05:34:07;16.50;99.90
21648;DHT22;10985;54.182;7.890;2023-08-06T05:36:33;16.50;99.90
21648;DHT22;10985;54.182;7.890;2023-08-06T05:38:58;16.50;99.90
21648;DHT22;10985;54.182;7.890;2023-08-06T05:41:24;16.50;99.90
21648;DHT22;10985;54.182;7.890;2023-08-06T05:43:50;16.50;99.90
21648;DHT22;10985;54.182;7.890;2023-08-06T05:46:15;16.60;99.90
21648;DHT22;10985;54.182;7.890;2023-08-06T05:48:41;16.60;99.90
21648;DHT22;10985;54.182;7.890;2023-08-06T05:51:06;16.60;99.90
21648;DHT22;10985;54.182;7.890;2023-08-06T05:53:32;16.60;99.90
21648;DHT22;10985;54.182;7.890;2023-08-06T05:55:57;16.60;99.90
21648;DHT22;10985;54.182;7.890;2023-08-06T05:58:23;16.70;99.90
21648;DHT22;10985;54.182;7.890;2023-08-06T06:00:51;16.70;99.90
21648;DHT22;10985;54.182;7.890;2023-08-06T06:03:17;16.70;99.90
21648;DHT22;10985;54.182;7.890;2023-08-06T06:05:42;16.60;99.90
21648;DHT22;10985;54.182;7.890;2023-08-06T06:08:08;16.70;99.90
21648;DHT22;10985;54.182;7.890;2023-08-06T06:10:34;16.70;99.90
21648;DHT22;10985;54.182;7.890;2023-08-06T06:13:00;16.70;99.90
21648;DHT22;10985;54.182;7.890;2023-08-06T06:15:25;16.80;99.90
21648;DHT22;10985;54.182;7.890;2023-08-06T06:17:51;16.80;99.90
21648;DHT22;10985;54.182;7.890;2023-08-06T06:20:16;16.80;99.90
21648;DHT22;10985;54.182;7.890;2023-08-06T06:22:42;16.90;99.90
21648;DHT22;10985;54.182;7.890;2023-08-06T06:25:08;16.90;99.90
21648;DHT22;10985;54.182;7.890;2023-08-06T06:27:35;17.00;99.90
21648;DHT22;10985;54.182;7.890;2023-08-06T06:30:00;17.00;99.90
21648;DHT22;10985;54.182;7.890;2023-08-06T06:32:26;17.00;99.90
21648;DHT22;10985;54.182;7.890;2023-08-06T06:34:51;17.10;99.90
21648;DHT22;10985;54.182;7.890;2023-08-06T06:37:17;17.20;99.90
21648;DHT22;10985;54.182;7.890;2023-08-06T06:39:42;17.20;99.90
21648;DHT22;10985;54.182;7.890;2023-08-06T06:42:09;17.30;99.90
21648;DHT22;10985;54.182;7.890;2023-08-06T06:44:34;17.30;99.90
21648;DHT22;10985;54.182;7.890;2023-08-06T06:47:00;17.40;99.90
21648;DHT22;10985;54.182;7.890;2023-08-06T06:49:25;17.40;99.90
21648;DHT22;10985;54.182;7.890;2023-08-06T06:51:51;17.50;99.90
21648;DHT22;10985;54.182;7.890;2023-08-06T06:54:16;17.60;99.90
21648;DHT22;10985;54.182;7.890;2023-08-06T06:56:42;17.60;99.90
21648;DHT22;10985;54.182;7.890;2023-08-06T06:59:07;17.60;99.90
21648;DHT22;10985;54.182;7.890;2023-08-06T07:01:33;17.70;99.90
21648;DHT22;10985;54.182;7.890;2023-08-06T07:03:58;17.70;99.90
21648;DHT22;10985;54.182;7.890;2023-08-06T07:06:24;17.80;99.90
21648;DHT22;10985;54.182;7.890;2023-08-06T07:08:49;17.80;99.90
21648;DHT22;10985;54.182;7.890;2023-08-06T07:11:15;17.80;99.90
21648;DHT22;10985;54.182;7.890;2023-08-06T07:13:40;17.90;99.90
21648;DHT22;10985;54.182;7.890;2023-08-06T07:16:06;17.90;99.90
21648;DHT22;10985;54.182;7.890;2023-08-06T07:18:31;18.00;99.90
21648;DHT22;10985;54.182;7.890;2023-08-06T07:20:57;18.00;99.90
21648;DHT22;10985;54.182;7.890;2023-08-06T07:23:25;18.10;99.90
21648;DHT22;10985;54.182;7.890;2023-08-06T07:25:51;18.10;99.90
21648;DHT22;10985;54.182;7.890;2023-08-06T07:28:16;18.20;99.90
21648;DHT22;10985;54.182;7.890;2023-08-06T07:30:43;18.30;99.90
21648;DHT22;10985;54.182;7.890;2023-08-06T07:33:09;18.30;99.90
21648;DHT22;10985;54.182;7.890;2023-08-06T07:35:35;18.40;99.90
21648;DHT22;10985;54.182;7.890;2023-08-06T07:38:02;18.40;99.90
21648;DHT22;10985;54.182;7.890;2023-08-06T07:40:27;18.40;99.90
21648;DHT22;10985;54.182;7.890;2023-08-06T07:42:53;18.40;99.90
21648;DHT22;10985;54.182;7.890;2023-08-06T07:45:18;18.50;99.90
21648;DHT22;10985;54.182;7.890;2023-08-06T07:47:44;18.50;99.90
21648;DHT22;10985;54.182;7.890;2023-08-06T07:50:10;18.60;99.90
21648;DHT22;10985;54.182;7.890;2023-08-06T07:52:35;18.60;99.90
21648;DHT22;10985;54.182;7.890;2023-08-06T07:55:01;18.70;99.90
21648;DHT22;10985;54.182;7.890;2023-08-06T07:57:31;18.70;99.90
21648;DHT22;10985;54.182;7.890;2023-08-06T07:59:57;18.80;99.90
21648;DHT22;10985;54.182;7.890;2023-08-06T08:02:23;18.80;99.90
21648;DHT22;10985;54.182;7.890;2023-08-06T08:04:48;18.90;99.90
21648;DHT22;10985;54.182;7.890;2023-08-06T08:07:14;18.90;99.90
21648;DHT22;10985;54.182;7.890;2023-08-06T08:09:39;18.90;99.90
21648;DHT22;10985;54.182;7.890;2023-08-06T08:12:05;19.00;99.90
21648;DHT22;10985;54.182;7.890;2023-08-06T08:16:59;19.10;99.90
21648;DHT22;10985;54.182;7.890;2023-08-06T08:19:24;19.20;99.90
21648;DHT22;10985;54.182;7.890;2023-08-06T08:21:49;19.20;99.90
21648;DHT22;10985;54.182;7.890;2023-08-06T08:24:15;19.30;99.90
21648;DHT22;10985;54.182;7.890;2023-08-06T08:26:40;19.30;99.90
21648;DHT22;10985;54.182;7.890;2023-08-06T08:29:06;19.40;99.90
21648;DHT22;10985;54.182;7.890;2023-08-06T08:31:31;19.50;99.90
21648;DHT22;10985;54.182;7.890;2023-08-06T08:34:03;19.50;99.90
21648;DHT22;10985;54.182;7.890;2023-08-06T08:36:29;19.50;99.90
21648;DHT22;10985;54.182;7.890;2023-08-06T08:38:54;19.60;99.90
21648;DHT22;10985;54.182;7.890;2023-08-06T08:41:20;19.60;99.90
21648;DHT22;10985;54.182;7.890;2023-08-06T08:43:47;19.70;99.90
21648;DHT22;10985;54.182;7.890;2023-08-06T08:46:14;19.80;99.90
21648;DHT22;10985;54.182;7.890;2023-08-06T08:48:40;19.80;99.90
21648;DHT22;10985;54.182;7.890;2023-08-06T08:51:06;19.90;99.90
21648;DHT22;10985;54.182;7.890;2023-08-06T08:53:31;20.00;99.90
21648;DHT22;10985;54.182;7.890;2023-08-06T08:55:58;20.00;99.90
21648;DHT22;10985;54.182;7.890;2023-08-06T08:58:24;20.10;99.90
21648;DHT22;10985;54.182;7.890;2023-08-06T09:00:49;20.20;99.90
21648;DHT22;10985;54.182;7.890;2023-08-06T09:03:16;20.30;99.90
21648;DHT22;10985;54.182;7.890;2023-08-06T09:05:44;20.50;99.90
21648;DHT22;10985;54.182;7.890;2023-08-06T09:08:11;20.60;99.90
21648;DHT22;10985;54.182;7.890;2023-08-06T09:10:40;20.70;99.90
21648;DHT22;10985;54.182;7.890;2023-08-06T09:13:06;20.80;99.90
21648;DHT22;10985;54.182;7.890;2023-08-06T09:15:32;20.90;99.90
21648;DHT22;10985;54.182;7.890;2023-08-06T09:17:59;21.10;99.90
21648;DHT22;10985;54.182;7.890;2023-08-06T09:20:24;21.20;99.90
21648;DHT22;10985;54.182;7.890;2023-08-06T09:22:53;21.30;99.90
21648;DHT22;10985;54.182;7.890;2023-08-06T09:25:23;21.40;99.90
21648;DHT22;10985;54.182;7.890;2023-08-06T09:27:50;21.60;99.90
21648;DHT22;10985;54.182;7.890;2023-08-06T09:30:30;21.70;99.90
21648;DHT22;10985;54.182;7.890;2023-08-06T09:32:57;21.80;99.90
21648;DHT22;10985;54.182;7.890;2023-08-06T09:35:22;21.90;99.90
21648;DHT22;10985;54.182;7.890;2023-08-06T09:37:48;22.00;99.90
21648;DHT22;10985;54.182;7.890;2023-08-06T09:40:29;22.10;99.90
21648;DHT22;10985;54.182;7.890;2023-08-06T09:42:55;22.10;99.90
21648;DHT22;10985;54.182;7.890;2023-08-06T09:45:21;22.00;99.90
21648;DHT22;10985;54.182;7.890;2023-08-06T09:47:48;22.00;99.90
21648;DHT22;10985;54.182;7.890;2023-08-06T09:50:20;21.90;99.90
21648;DHT22;10985;54.182;7.890;2023-08-06T09:52:50;21.90;99.90
21648;DHT22;10985;54.182;7.890;2023-08-06T09:55:18;21.80;99.90
21648;DHT22;10985;54.182;7.890;2023-08-06T09:57:44;21.80;99.90
21648;DHT22;10985;54.182;7.890;2023-08-06T10:00:10;21.80;99.90
21648;DHT22;10985;54.182;7.890;2023-08-06T10:02:39;21.80;99.90
21648;DHT22;10985;54.182;7.890;2023-08-06T10:05:06;21.80;99.90
21648;DHT22;10985;54.182;7.890;2023-08-06T10:07:33;21.90;99.90
21648;DHT22;10985;54.182;7.890;2023-08-06T10:09:59;22.00;99.90
21648;DHT22;10985;54.182;7.890;2023-08-06T10:12:28;22.10;99.90
21648;DHT22;10985;54.182;7.890;2023-08-06T10:14:59;22.20;99.90
21648;DHT22;10985;54.182;7.890;2023-08-06T10:17:25;22.30;99.90
21648;DHT22;10985;54.182;7.890;2023-08-06T10:19:51;22.50;99.90
21648;DHT22;10985;54.182;7.890;2023-08-06T10:22:20;22.70;99.90
21648;DHT22;10985;54.182;7.890;2023-08-06T10:24:57;22.90;99.90
21648;DHT22;10985;54.182;7.890;2023-08-06T10:30:27;23.30;99.90
21648;DHT22;10985;54.182;7.890;2023-08-06T10:32:55;23.50;99.90
21648;DHT22;10985;54.182;7.890;2023-08-06T10:37:58;23.80;99.90
21648;DHT22;10985;54.182;7.890;2023-08-06T10:40:23;23.90;99.90
21648;DHT22;10985;54.182;7.890;2023-08-06T10:42:49;24.10;99.90
21648;DHT22;10985;54.182;7.890;2023-08-06T10:45:19;24.20;99.90
21648;DHT22;10985;54.182;7.890;2023-08-06T10:47:45;24.40;99.90
21648;DHT22;10985;54.182;7.890;2023-08-06T10:50:14;24.50;99.90
21648;DHT22;10985;54.182;7.890;2023-08-06T10:52:42;24.60;99.90
21648;DHT22;10985;54.182;7.890;2023-08-06T10:55:08;24.70;99.90
21648;DHT22;10985;54.182;7.890;2023-08-06T10:57:34;24.80;99.90
21648;DHT22;10985;54.182;7.890;2023-08-06T11:00:00;24.80;99.90
21648;DHT22;10985;54.182;7.890;2023-08-06T11:02:25;24.80;99.90
21648;DHT22;10985;54.182;7.890;2023-08-06T11:04:51;24.80;99.90
21648;DHT22;10985;54.182;7.890;2023-08-06T11:07:16;24.80;99.90
21648;DHT22;10985;54.182;7.890;2023-08-06T11:09:42;24.70;99.90
21648;DHT22;10985;54.182;7.890;2023-08-06T11:12:10;24.70;99.90
21648;DHT22;10985;54.182;7.890;2023-08-06T11:14:36;24.50;99.90
21648;DHT22;10985;54.182;7.890;2023-08-06T11:17:02;24.50;99.90
21648;DHT22;10985;54.182;7.890;2023-08-06T11:19:27;24.40;99.90
21648;DHT22;10985;54.182;7.890;2023-08-06T11:21:54;24.40;99.90
21648;DHT22;10985;54.182;7.890;2023-08-06T11:24:20;24.30;99.90
21648;DHT22;10985;54.182;7.890;2023-08-06T11:26:45;24.30;99.90
21648;DHT22;10985;54.182;7.890;2023-08-06T11:29:11;24.20;99.90
21648;DHT22;10985;54.182;7.890;2023-08-06T11:31:36;24.20;99.90
21648;DHT22;10985;54.182;7.890;2023-08-06T11:34:02;24.10;99.90
21648;DHT22;10985;54.182;7.890;2023-08-06T11:36:29;24.10;99.90
21648;DHT22;10985;54.182;7.890;2023-08-06T11:38:55;24.10;99.90
21648;DHT22;10985;54.182;7.890;2023-08-06T11:41:21;24.10;99.90
21648;DHT22;10985;54.182;7.890;2023-08-06T11:43:47;24.00;99.90
21648;DHT22;10985;54.182;7.890;2023-08-06T11:46:12;24.00;99.90
21648;DHT22;10985;54.182;7.890;2023-08-06T11:48:58;23.90;99.90
21648;DHT22;10985;54.182;7.890;2023-08-06T11:51:24;23.90;99.90
21648;DHT22;10985;54.182;7.890;2023-08-06T11:53:55;23.90;99.90
21648;DHT22;10985;54.182;7.890;2023-08-06T11:56:21;23.80;99.90
21648;DHT22;10985;54.182;7.890;2023-08-06T11:58:47;23.80;99.90
21648;DHT22;10985;54.182;7.890;2023-08-06T12:01:13;23.80;99.90
21648;DHT22;10985;54.182;7.890;2023-08-06T12:03:40;23.80;99.90
21648;DHT22;10985;54.182;7.890;2023-08-06T12:06:05;23.80;99.90
21648;DHT22;10985;54.182;7.890;2023-08-06T12:08:32;23.90;99.90
21648;DHT22;10985;54.182;7.890;2023-08-06T12:10:58;23.90;99.90
21648;DHT22;10985;54.182;7.890;2023-08-06T12:13:24;23.90;99.90
21648;DHT22;10985;54.182;7.890;2023-08-06T12:15:49;24.00;99.90
21648;DHT22;10985;54.182;7.890;2023-08-06T12:18:17;24.00;99.90
21648;DHT22;10985;54.182;7.890;2023-08-06T12:20:43;23.90;99.90
21648;DHT22;10985;54.182;7.890;2023-08-06T12:23:08;23.90;99.90
21648;DHT22;10985;54.182;7.890;2023-08-06T12:25:35;24.00;99.90
21648;DHT22;10985;54.182;7.890;2023-08-06T12:28:00;24.00;99.90
21648;DHT22;10985;54.182;7.890;2023-08-06T12:30:26;24.00;99.90
21648;DHT22;10985;54.182;7.890;2023-08-06T12:32:52;23.90;99.90
21648;DHT22;10985;54.182;7.890;2023-08-06T12:35:17;23.80;99.90
21648;DHT22;10985;54.182;7.890;2023-08-06T12:37:43;23.80;99.90
21648;DHT22;10985;54.182;7.890;2023-08-06T12:40:09;23.70;99.90
21648;DHT22;10985;54.182;7.890;2023-08-06T12:42:35;23.50;99.90
21648;DHT22;10985;54.182;7.890;2023-08-06T12:45:01;23.40;99.90
21648;DHT22;10985;54.182;7.890;2023-08-06T12:47:26;23.10;99.90
21648;DHT22;10985;54.182;7.890;2023-08-06T12:49:52;22.90;99.90
21648;DHT22;10985;54.182;7.890;2023-08-06T12:52:17;22.70;99.90
21648;DHT22;10985;54.182;7.890;2023-08-06T12:54:45;22.50;99.90
21648;DHT22;10985;54.182;7.890;2023-08-06T12:57:11;22.20;99.90
21648;DHT22;10985;54.182;7.890;2023-08-06T12:59:37;21.90;99.90
21648;DHT22;10985;54.182;7.890;2023-08-06T13:02:04;21.60;99.90
21648;DHT22;10985;54.182;7.890;2023-08-06T13:04:29;21.40;99.90
21648;DHT22;10985;54.182;7.890;2023-08-06T13:06:55;21.30;99.90
21648;DHT22;10985;54.182;7.890;2023-08-06T13:09:21;21.00;99.90
21648;DHT22;10985;54.182;7.890;2023-08-06T13:11:47;20.90;99.90
21648;DHT22;10985;54.182;7.890;2023-08-06T13:14:15;20.70;99.90
21648;DHT22;10985;54.182;7.890;2023-08-06T13:16:42;20.60;99.90
21648;DHT22;10985;54.182;7.890;2023-08-06T13:19:09;20.50;99.90
21648;DHT22;10985;54.182;7.890;2023-08-06T13:24:08;20.20;99.90
21648;DHT22;10985;54.182;7.890;2023-08-06T13:26:34;20.10;99.90
21648;DHT22;10985;54.182;7.890;2023-08-06T13:29:00;20.10;99.90
21648;DHT22;10985;54.182;7.890;2023-08-06T13:31:27;20.00;99.90
21648;DHT22;10985;54.182;7.890;2023-08-06T13:33:54;19.90;99.90
21648;DHT22;10985;54.182;7.890;2023-08-06T13:36:21;19.90;99.90
21648;DHT22;10985;54.182;7.890;2023-08-06T13:38:47;20.00;99.90
21648;DHT22;10985;54.182;7.890;2023-08-06T13:41:12;19.90;99.90
21648;DHT22;10985;54.182;7.890;2023-08-06T13:43:38;19.90;99.90
21648;DHT22;10985;54.182;7.890;2023-08-06T13:46:04;20.00;99.90
21648;DHT22;10985;54.182;7.890;2023-08-06T13:48:30;20.10;99.90
21648;DHT22;10985;54.182;7.890;2023-08-06T13:50:55;20.10;99.90
21648;DHT22;10985;54.182;7.890;2023-08-06T13:53:21;20.10;99.90
21648;DHT22;10985;54.182;7.890;2023-08-06T13:55:46;20.20;99.90
21648;DHT22;10985;54.182;7.890;2023-08-06T13:58:12;20.20;99.90
21648;DHT22;10985;54.182;7.890;2023-08-06T14:00:37;20.20;99.90
21648;DHT22;10985;54.182;7.890;2023-08-06T14:03:03;20.20;99.90
21648;DHT22;10985;54.182;7.890;2023-08-06T14:05:29;20.30;99.90
21648;DHT22;10985;54.182;7.890;2023-08-06T14:07:54;20.40;99.90
21648;DHT22;10985;54.182;7.890;2023-08-06T14:10:20;20.40;99.90
21648;DHT22;10985;54.182;7.890;2023-08-06T14:12:45;20.40;99.90
21648;DHT22;10985;54.182;7.890;2023-08-06T14:15:11;20.50;99.90
21648;DHT22;10985;54.182;7.890;2023-08-06T14:17:37;20.50;99.90
21648;DHT22;10985;54.182;7.890;2023-08-06T14:20:04;20.50;99.90
21648;DHT22;10985;54.182;7.890;2023-08-06T14:22:30;20.50;99.90
21648;DHT22;10985;54.182;7.890;2023-08-06T14:24:57;20.60;99.90
21648;DHT22;10985;54.182;7.890;2023-08-06T14:27:23;20.70;99.90
21648;DHT22;10985;54.182;7.890;2023-08-06T14:29:48;20.70;99.90
21648;DHT22;10985;54.182;7.890;2023-08-06T14:32:14;20.80;99.90
21648;DHT22;10985;54.182;7.890;2023-08-06T14:34:43;20.80;99.90
21648;DHT22;10985;54.182;7.890;2023-08-06T14:37:09;20.90;99.90
21648;DHT22;10985;54.182;7.890;2023-08-06T14:39:34;21.00;99.90
21648;DHT22;10985;54.182;7.890;2023-08-06T14:42:00;21.00;99.90
21648;DHT22;10985;54.182;7.890;2023-08-06T14:44:25;21.10;99.90
21648;DHT22;10985;54.182;7.890;2023-08-06T14:46:51;21.10;99.90
21648;DHT22;10985;54.182;7.890;2023-08-06T14:49:16;21.20;99.90
21648;DHT22;10985;54.182;7.890;2023-08-06T14:51:42;21.20;99.90
21648;DHT22;10985;54.182;7.890;2023-08-06T14:54:07;21.20;99.90
21648;DHT22;10985;54.182;7.890;2023-08-06T14:56:33;21.20;99.90
21648;DHT22;10985;54.182;7.890;2023-08-06T14:58:58;21.20;99.90
21648;DHT22;10985;54.182;7.890;2023-08-06T15:01:24;21.20;99.90
21648;DHT22;10985;54.182;7.890;2023-08-06T15:03:49;21.20;99.90
21648;DHT22;10985;54.182;7.890;2023-08-06T15:06:15;21.20;99.90
21648;DHT22;10985;54.182;7.890;2023-08-06T15:08:40;21.20;99.90
21648;DHT22;10985;54.182;7.890;2023-08-06T15:11:06;21.20;99.90
21648;DHT22;10985;54.182;7.890;2023-08-06T15:13:31;21.20;99.90
21648;DHT22;10985;54.182;7.890;2023-08-06T15:15:57;21.20;99.90
21648;DHT22;10985;54.182;7.890;2023-08-06T15:18:22;21.20;99.90
21648;DHT22;10985;54.182;7.890;2023-08-06T15:20:48;21.10;99.90
21648;DHT22;10985;54.182;7.890;2023-08-06T15:23:14;21.10;99.90
21648;DHT22;10985;54.182;7.890;2023-08-06T15:25:39;21.10;99.90
21648;DHT22;10985;54.182;7.890;2023-08-06T15:28:05;21.10;99.90
21648;DHT22;10985;54.182;7.890;2023-08-06T15:30:31;21.10;99.90
21648;DHT22;10985;54.182;7.890;2023-08-06T15:32:57;21.10;99.90
21648;DHT22;10985;54.182;7.890;2023-08-06T15:35:22;21.00;99.90
21648;DHT22;10985;54.182;7.890;2023-08-06T15:37:48;21.00;99.90
21648;DHT22;10985;54.182;7.890;2023-08-06T15:40:13;21.00;99.90
21648;DHT22;10985;54.182;7.890;2023-08-06T15:42:39;21.00;99.90